Carpenter, Mississippi
Current Conditions -  °F | °C
As of 6:35 PM on Thursday 27 Nov 2014 (Local Time) from KVKS Reporting Station
Clear Clear  
Wind Chill: 41°   Ceiling: Unl
Heat Index: 41°   Visibility: 10mi
Dew Point: 32°   Wind: 3mph
Humidity: 70%   Direction: 50°NE
Pressure: 30.49"   Gusts: NA
Location:  31.955°N, 90.8237°W
Report Text: KVKS 280035Z AUTO 05003KT 10SM CLR 05/M00 A3049 RMK A01
Loading
Personal Weather Stations






























Interactive Weather Map New forecast layout! Learn more

10-Day Weather Forecast

Advertisements
Track Severe Weather on mobile